Terminal Aerodrome Forecast
Issued by NWS Charleston, WV

Home | Current Version | Previous Version | Text Only | Print | Product List | Glossary On
Versions: 1 2 3 4 5 6 7 8 9 10 11 12 13 14 15 16 17 18 19 20 21 22 23 24 25
000
FTUS41 KRLX 302300
TAFEKN
TAF
KEKN 302339Z 3100/3124 VRB04KT P6SM VCSH SCT050
      TEMPO 3100/3102 5SM -SHRA OVC040
     FM310300 00000KT 4SM BR BKN040
     FM310600 00000KT 2SM BR SCT035
     FM310700 00000KT 1/2SM FG FEW001 SCT035
     FM310900 00000KT 1/4SM FG VV001
     FM311300 00000KT 1SM BR BKN001
     FM311500 27004KT P6SM BKN035=

USA.gov is the U.S. government's official web portal to all federal, state and local government web resources and services.